sensor_id;sensor_type;location;lat;lon;timestamp;P1;durP1;ratioP1;P2;durP2;ratioP2
67049;SDS011;53955;52.442;13.284;2022-11-02T00:00:22;8.87;;;5.87;;
67049;SDS011;53955;52.442;13.284;2022-11-02T00:02:49;11.13;;;5.67;;
67049;SDS011;53955;52.442;13.284;2022-11-02T00:05:16;9.50;;;5.33;;
67049;SDS011;53955;52.442;13.284;2022-11-02T00:07:49;8.07;;;5.20;;
67049;SDS011;53955;52.442;13.284;2022-11-02T00:10:16;10.82;;;5.28;;
67049;SDS011;53955;52.442;13.284;2022-11-02T00:12:43;9.18;;;5.15;;
67049;SDS011;53955;52.442;13.284;2022-11-02T00:15:11;8.33;;;5.10;;
67049;SDS011;53955;52.442;13.284;2022-11-02T00:17:38;7.75;;;5.40;;
67049;SDS011;53955;52.442;13.284;2022-11-02T00:20:07;9.65;;;5.80;;
67049;SDS011;53955;52.442;13.284;2022-11-02T00:22:35;8.83;;;5.33;;
67049;SDS011;53955;52.442;13.284;2022-11-02T00:25:05;8.27;;;5.60;;
67049;SDS011;53955;52.442;13.284;2022-11-02T00:27:36;10.20;;;5.57;;
67049;SDS011;53955;52.442;13.284;2022-11-02T00:30:03;9.20;;;5.60;;
67049;SDS011;53955;52.442;13.284;2022-11-02T00:32:30;8.38;;;5.15;;
67049;SDS011;53955;52.442;13.284;2022-11-02T00:34:57;7.73;;;5.20;;
67049;SDS011;53955;52.442;13.284;2022-11-02T00:37:23;6.77;;;4.77;;
67049;SDS011;53955;52.442;13.284;2022-11-02T00:39:50;8.95;;;5.38;;
67049;SDS011;53955;52.442;13.284;2022-11-02T00:42:18;10.43;;;5.50;;
67049;SDS011;53955;52.442;13.284;2022-11-02T00:44:44;7.47;;;4.93;;
67049;SDS011;53955;52.442;13.284;2022-11-02T00:47:11;7.97;;;5.20;;
67049;SDS011;53955;52.442;13.284;2022-11-02T00:49:37;9.50;;;5.15;;
67049;SDS011;53955;52.442;13.284;2022-11-02T00:52:04;9.03;;;5.03;;
67049;SDS011;53955;52.442;13.284;2022-11-02T00:54:30;8.73;;;5.60;;
67049;SDS011;53955;52.442;13.284;2022-11-02T00:56:57;7.70;;;4.63;;
67049;SDS011;53955;52.442;13.284;2022-11-02T00:59:25;7.40;;;4.82;;
67049;SDS011;53955;52.442;13.284;2022-11-02T01:01:51;7.97;;;4.87;;
67049;SDS011;53955;52.442;13.284;2022-11-02T01:04:18;8.73;;;4.40;;
67049;SDS011;53955;52.442;13.284;2022-11-02T01:06:45;7.00;;;4.67;;
67049;SDS011;53955;52.442;13.284;2022-11-02T01:09:12;8.10;;;5.17;;
67049;SDS011;53955;52.442;13.284;2022-11-02T01:11:40;7.63;;;4.50;;
67049;SDS011;53955;52.442;13.284;2022-11-02T01:14:07;6.77;;;4.47;;
67049;SDS011;53955;52.442;13.284;2022-11-02T01:16:35;13.37;;;5.10;;
67049;SDS011;53955;52.442;13.284;2022-11-02T01:19:04;11.60;;;5.43;;
67049;SDS011;53955;52.442;13.284;2022-11-02T01:21:30;7.67;;;4.63;;
67049;SDS011;53955;52.442;13.284;2022-11-02T01:23:57;7.43;;;4.90;;
67049;SDS011;53955;52.442;13.284;2022-11-02T01:26:23;6.63;;;4.60;;
67049;SDS011;53955;52.442;13.284;2022-11-02T01:28:51;9.83;;;4.97;;
67049;SDS011;53955;52.442;13.284;2022-11-02T01:31:18;12.13;;;5.63;;
67049;SDS011;53955;52.442;13.284;2022-11-02T01:33:46;7.30;;;4.33;;
67049;SDS011;53955;52.442;13.284;2022-11-02T01:36:13;8.83;;;4.70;;
67049;SDS011;53955;52.442;13.284;2022-11-02T01:38:41;7.53;;;5.03;;
67049;SDS011;53955;52.442;13.284;2022-11-02T01:41:08;7.50;;;4.70;;
67049;SDS011;53955;52.442;13.284;2022-11-02T01:43:35;6.97;;;4.50;;
67049;SDS011;53955;52.442;13.284;2022-11-02T01:46:03;7.13;;;4.67;;
67049;SDS011;53955;52.442;13.284;2022-11-02T01:48:34;7.90;;;5.33;;
67049;SDS011;53955;52.442;13.284;2022-11-02T01:51:04;8.17;;;4.37;;
67049;SDS011;53955;52.442;13.284;2022-11-02T01:53:32;7.30;;;4.00;;
67049;SDS011;53955;52.442;13.284;2022-11-02T01:56:03;6.10;;;3.73;;
67049;SDS011;53955;52.442;13.284;2022-11-02T01:58:30;5.40;;;4.03;;
67049;SDS011;53955;52.442;13.284;2022-11-02T02:00:59;7.73;;;4.00;;
67049;SDS011;53955;52.442;13.284;2022-11-02T02:03:26;7.40;;;3.30;;
67049;SDS011;53955;52.442;13.284;2022-11-02T02:05:57;6.60;;;3.80;;
67049;SDS011;53955;52.442;13.284;2022-11-02T02:08:28;5.63;;;3.40;;
67049;SDS011;53955;52.442;13.284;2022-11-02T02:10:56;7.50;;;3.13;;
67049;SDS011;53955;52.442;13.284;2022-11-02T02:13:24;5.43;;;3.23;;
67049;SDS011;53955;52.442;13.284;2022-11-02T02:15:53;4.83;;;3.10;;
67049;SDS011;53955;52.442;13.284;2022-11-02T02:18:28;5.13;;;3.00;;
67049;SDS011;53955;52.442;13.284;2022-11-02T02:21:04;6.27;;;3.53;;
67049;SDS011;53955;52.442;13.284;2022-11-02T02:29:28;5.30;;;2.90;;
67049;SDS011;53955;52.442;13.284;2022-11-02T02:32:01;5.80;;;2.87;;
67049;SDS011;53955;52.442;13.284;2022-11-02T02:34:32;7.27;;;3.00;;
67049;SDS011;53955;52.442;13.284;2022-11-02T02:37:05;5.87;;;3.27;;
67049;SDS011;53955;52.442;13.284;2022-11-02T02:39:37;4.37;;;2.40;;
67049;SDS011;53955;52.442;13.284;2022-11-02T02:42:10;5.40;;;2.90;;
67049;SDS011;53955;52.442;13.284;2022-11-02T02:44:44;5.53;;;2.50;;
67049;SDS011;53955;52.442;13.284;2022-11-02T02:47:20;4.20;;;2.60;;
67049;SDS011;53955;52.442;13.284;2022-11-02T02:49:52;4.30;;;2.40;;
67049;SDS011;53955;52.442;13.284;2022-11-02T02:52:23;6.40;;;2.77;;
67049;SDS011;53955;52.442;13.284;2022-11-02T02:54:54;4.27;;;2.90;;
67049;SDS011;53955;52.442;13.284;2022-11-02T02:57:25;5.37;;;2.70;;
67049;SDS011;53955;52.442;13.284;2022-11-02T02:59:57;6.43;;;2.40;;
67049;SDS011;53955;52.442;13.284;2022-11-02T03:02:25;6.43;;;2.60;;
67049;SDS011;53955;52.442;13.284;2022-11-02T03:04:55;5.57;;;2.57;;
67049;SDS011;53955;52.442;13.284;2022-11-02T03:07:22;5.77;;;2.13;;
67049;SDS011;53955;52.442;13.284;2022-11-02T03:09:54;4.83;;;2.13;;
67049;SDS011;53955;52.442;13.284;2022-11-02T03:12:29;3.77;;;2.33;;
67049;SDS011;53955;52.442;13.284;2022-11-02T03:15:08;4.50;;;2.37;;
67049;SDS011;53955;52.442;13.284;2022-11-02T03:17:42;4.33;;;2.50;;
67049;SDS011;53955;52.442;13.284;2022-11-02T03:20:19;5.23;;;2.60;;
67049;SDS011;53955;52.442;13.284;2022-11-02T03:22:51;4.03;;;2.73;;
67049;SDS011;53955;52.442;13.284;2022-11-02T03:25:23;5.10;;;3.30;;
67049;SDS011;53955;52.442;13.284;2022-11-02T03:27:56;6.53;;;2.90;;
67049;SDS011;53955;52.442;13.284;2022-11-02T03:30:32;4.97;;;2.80;;
67049;SDS011;53955;52.442;13.284;2022-11-02T03:33:05;6.53;;;2.50;;
67049;SDS011;53955;52.442;13.284;2022-11-02T03:35:34;6.63;;;2.90;;
67049;SDS011;53955;52.442;13.284;2022-11-02T03:38:06;6.13;;;3.20;;
67049;SDS011;53955;52.442;13.284;2022-11-02T03:40:39;8.10;;;3.20;;
67049;SDS011;53955;52.442;13.284;2022-11-02T03:43:09;5.50;;;2.90;;
67049;SDS011;53955;52.442;13.284;2022-11-02T03:45:38;7.27;;;2.40;;
67049;SDS011;53955;52.442;13.284;2022-11-02T03:48:08;5.07;;;2.57;;
67049;SDS011;53955;52.442;13.284;2022-11-02T03:50:42;4.87;;;2.20;;
67049;SDS011;53955;52.442;13.284;2022-11-02T03:53:14;4.43;;;2.60;;
67049;SDS011;53955;52.442;13.284;2022-11-02T03:55:47;5.60;;;2.23;;
67049;SDS011;53955;52.442;13.284;2022-11-02T03:58:18;5.80;;;2.80;;
67049;SDS011;53955;52.442;13.284;2022-11-02T04:00:47;4.47;;;2.70;;
67049;SDS011;53955;52.442;13.284;2022-11-02T04:03:18;5.67;;;2.47;;
67049;SDS011;53955;52.442;13.284;2022-11-02T04:05:48;4.87;;;2.80;;
67049;SDS011;53955;52.442;13.284;2022-11-02T04:08:16;5.63;;;2.20;;
67049;SDS011;53955;52.442;13.284;2022-11-02T04:10:48;4.73;;;2.17;;
67049;SDS011;53955;52.442;13.284;2022-11-02T04:13:34;4.67;;;2.40;;
67049;SDS011;53955;52.442;13.284;2022-11-02T04:16:20;5.70;;;2.70;;
67049;SDS011;53955;52.442;13.284;2022-11-02T04:18:47;4.87;;;2.50;;
67049;SDS011;53955;52.442;13.284;2022-11-02T04:21:31;4.00;;;2.27;;
67049;SDS011;53955;52.442;13.284;2022-11-02T04:23:58;4.60;;;2.80;;
67049;SDS011;53955;52.442;13.284;2022-11-02T04:26:42;5.53;;;2.10;;
67049;SDS011;53955;52.442;13.284;2022-11-02T04:29:08;5.67;;;2.20;;
67049;SDS011;53955;52.442;13.284;2022-11-02T04:31:37;6.97;;;2.67;;
67049;SDS011;53955;52.442;13.284;2022-11-02T04:34:03;7.10;;;3.53;;
67049;SDS011;53955;52.442;13.284;2022-11-02T04:36:29;3.83;;;2.40;;
67049;SDS011;53955;52.442;13.284;2022-11-02T04:38:57;4.47;;;2.03;;
67049;SDS011;53955;52.442;13.284;2022-11-02T04:41:23;4.33;;;2.30;;
67049;SDS011;53955;52.442;13.284;2022-11-02T04:44:09;4.57;;;2.10;;
67049;SDS011;53955;52.442;13.284;2022-11-02T04:46:38;5.57;;;2.30;;
67049;SDS011;53955;52.442;13.284;2022-11-02T04:49:06;7.83;;;2.60;;
67049;SDS011;53955;52.442;13.284;2022-11-02T04:51:33;7.27;;;2.00;;
67049;SDS011;53955;52.442;13.284;2022-11-02T04:54:00;7.37;;;2.43;;
67049;SDS011;53955;52.442;13.284;2022-11-02T04:56:28;4.23;;;2.27;;
67049;SDS011;53955;52.442;13.284;2022-11-02T04:58:55;7.10;;;2.10;;
67049;SDS011;53955;52.442;13.284;2022-11-02T05:01:23;7.03;;;2.20;;
67049;SDS011;53955;52.442;13.284;2022-11-02T05:03:52;4.23;;;1.50;;
67049;SDS011;53955;52.442;13.284;2022-11-02T05:06:21;3.70;;;1.60;;
67049;SDS011;53955;52.442;13.284;2022-11-02T05:08:49;2.87;;;1.80;;
67049;SDS011;53955;52.442;13.284;2022-11-02T05:11:15;5.83;;;2.10;;
67049;SDS011;53955;52.442;13.284;2022-11-02T05:13:42;4.77;;;1.97;;
67049;SDS011;53955;52.442;13.284;2022-11-02T05:16:10;8.93;;;2.33;;
67049;SDS011;53955;52.442;13.284;2022-11-02T05:18:38;9.63;;;2.50;;
67049;SDS011;53955;52.442;13.284;2022-11-02T05:21:07;8.13;;;2.10;;
67049;SDS011;53955;52.442;13.284;2022-11-02T05:23:35;9.83;;;1.80;;
67049;SDS011;53955;52.442;13.284;2022-11-02T05:26:03;4.23;;;2.03;;
67049;SDS011;53955;52.442;13.284;2022-11-02T05:30:57;7.30;;;2.60;;
67049;SDS011;53955;52.442;13.284;2022-11-02T06:17:35;8.87;;;2.00;;
67049;SDS011;53955;52.442;13.284;2022-11-02T06:20:03;5.83;;;2.10;;
67049;SDS011;53955;52.442;13.284;2022-11-02T06:22:36;4.63;;;2.00;;
67049;SDS011;53955;52.442;13.284;2022-11-02T06:25:03;3.77;;;1.50;;
67049;SDS011;53955;52.442;13.284;2022-11-02T06:27:30;5.33;;;1.90;;
67049;SDS011;53955;52.442;13.284;2022-11-02T06:29:58;5.00;;;1.80;;
67049;SDS011;53955;52.442;13.284;2022-11-02T06:32:25;4.83;;;1.80;;
67049;SDS011;53955;52.442;13.284;2022-11-02T06:34:51;5.87;;;1.70;;
67049;SDS011;53955;52.442;13.284;2022-11-02T06:37:21;5.17;;;1.97;;
67049;SDS011;53955;52.442;13.284;2022-11-02T06:39:47;6.47;;;2.27;;
67049;SDS011;53955;52.442;13.284;2022-11-02T06:42:14;6.00;;;1.73;;
67049;SDS011;53955;52.442;13.284;2022-11-02T06:44:40;4.33;;;1.80;;
67049;SDS011;53955;52.442;13.284;2022-11-02T06:47:08;6.35;;;2.03;;
67049;SDS011;53955;52.442;13.284;2022-11-02T06:49:35;3.97;;;2.10;;
67049;SDS011;53955;52.442;13.284;2022-11-02T06:52:01;8.57;;;1.92;;
67049;SDS011;53955;52.442;13.284;2022-11-02T06:54:28;7.33;;;1.73;;
67049;SDS011;53955;52.442;13.284;2022-11-02T06:56:54;6.17;;;1.60;;
67049;SDS011;53955;52.442;13.284;2022-11-02T06:59:21;6.50;;;1.90;;
67049;SDS011;53955;52.442;13.284;2022-11-02T07:01:47;4.53;;;1.70;;
67049;SDS011;53955;52.442;13.284;2022-11-02T07:04:19;4.37;;;1.47;;
67049;SDS011;53955;52.442;13.284;2022-11-02T07:09:12;4.77;;;1.60;;
67049;SDS011;53955;52.442;13.284;2022-11-02T07:11:38;8.07;;;2.17;;
67049;SDS011;53955;52.442;13.284;2022-11-02T07:14:05;7.70;;;2.20;;
67049;SDS011;53955;52.442;13.284;2022-11-02T07:16:32;4.43;;;1.83;;
67049;SDS011;53955;52.442;13.284;2022-11-02T07:18:58;7.47;;;1.80;;
67049;SDS011;53955;52.442;13.284;2022-11-02T07:21:26;4.07;;;2.33;;
67049;SDS011;53955;52.442;13.284;2022-11-02T07:23:53;5.70;;;2.00;;
67049;SDS011;53955;52.442;13.284;2022-11-02T07:26:19;4.20;;;1.85;;
67049;SDS011;53955;52.442;13.284;2022-11-02T07:28:46;3.37;;;1.70;;
67049;SDS011;53955;52.442;13.284;2022-11-02T07:31:13;8.10;;;1.90;;
67049;SDS011;53955;52.442;13.284;2022-11-02T07:33:39;5.03;;;2.00;;
67049;SDS011;53955;52.442;13.284;2022-11-02T07:36:06;5.70;;;2.10;;
67049;SDS011;53955;52.442;13.284;2022-11-02T07:38:34;6.05;;;1.90;;
67049;SDS011;53955;52.442;13.284;2022-11-02T07:41:01;7.35;;;1.80;;
67049;SDS011;53955;52.442;13.284;2022-11-02T07:43:27;5.10;;;1.35;;
67049;SDS011;53955;52.442;13.284;2022-11-02T07:45:54;3.85;;;1.75;;
67049;SDS011;53955;52.442;13.284;2022-11-02T07:48:21;7.60;;;2.30;;
67049;SDS011;53955;52.442;13.284;2022-11-02T07:50:47;8.27;;;2.30;;
67049;SDS011;53955;52.442;13.284;2022-11-02T07:53:14;5.47;;;1.83;;
67049;SDS011;53955;52.442;13.284;2022-11-02T07:55:41;8.13;;;2.08;;
67049;SDS011;53955;52.442;13.284;2022-11-02T07:58:09;8.80;;;1.70;;
67049;SDS011;53955;52.442;13.284;2022-11-02T08:00:38;8.82;;;2.20;;
67049;SDS011;53955;52.442;13.284;2022-11-02T08:03:06;5.43;;;2.20;;
67049;SDS011;53955;52.442;13.284;2022-11-02T08:05:34;6.50;;;1.73;;
67049;SDS011;53955;52.442;13.284;2022-11-02T08:08:02;4.68;;;1.77;;
67049;SDS011;53955;52.442;13.284;2022-11-02T08:10:31;4.63;;;1.83;;
67049;SDS011;53955;52.442;13.284;2022-11-02T08:13:00;8.07;;;1.80;;
67049;SDS011;53955;52.442;13.284;2022-11-02T08:15:26;6.50;;;1.88;;
67049;SDS011;53955;52.442;13.284;2022-11-02T08:17:59;5.30;;;1.60;;
67049;SDS011;53955;52.442;13.284;2022-11-02T08:20:27;6.93;;;2.00;;
67049;SDS011;53955;52.442;13.284;2022-11-02T08:22:53;4.60;;;1.57;;
67049;SDS011;53955;52.442;13.284;2022-11-02T08:27:46;5.13;;;1.90;;
67049;SDS011;53955;52.442;13.284;2022-11-02T08:30:14;5.78;;;1.88;;
67049;SDS011;53955;52.442;13.284;2022-11-02T08:32:41;6.20;;;2.00;;
67049;SDS011;53955;52.442;13.284;2022-11-02T08:35:07;6.18;;;2.15;;
67049;SDS011;53955;52.442;13.284;2022-11-02T08:37:34;6.70;;;2.03;;
67049;SDS011;53955;52.442;13.284;2022-11-02T08:40:01;10.57;;;1.73;;
67049;SDS011;53955;52.442;13.284;2022-11-02T08:42:28;7.68;;;1.83;;
67049;SDS011;53955;52.442;13.284;2022-11-02T08:44:54;4.55;;;1.63;;
67049;SDS011;53955;52.442;13.284;2022-11-02T08:47:22;7.15;;;1.77;;
67049;SDS011;53955;52.442;13.284;2022-11-02T08:49:49;7.07;;;1.95;;
67049;SDS011;53955;52.442;13.284;2022-11-02T08:52:16;5.30;;;1.70;;
67049;SDS011;53955;52.442;13.284;2022-11-02T08:54:42;6.03;;;1.63;;
67049;SDS011;53955;52.442;13.284;2022-11-02T08:57:09;6.75;;;1.67;;
67049;SDS011;53955;52.442;13.284;2022-11-02T08:59:36;6.97;;;2.30;;
67049;SDS011;53955;52.442;13.284;2022-11-02T09:02:02;7.63;;;1.80;;
67049;SDS011;53955;52.442;13.284;2022-11-02T09:04:30;5.85;;;1.50;;
67049;SDS011;53955;52.442;13.284;2022-11-02T09:06:56;5.65;;;1.55;;
67049;SDS011;53955;52.442;13.284;2022-11-02T09:09:23;5.65;;;1.63;;
67049;SDS011;53955;52.442;13.284;2022-11-02T09:11:49;7.15;;;2.03;;
67049;SDS011;53955;52.442;13.284;2022-11-02T09:14:16;7.13;;;1.52;;
67049;SDS011;53955;52.442;13.284;2022-11-02T09:16:43;8.70;;;1.88;;
67049;SDS011;53955;52.442;13.284;2022-11-02T09:19:09;5.22;;;1.90;;
67049;SDS011;53955;52.442;13.284;2022-11-02T09:21:37;7.00;;;1.65;;
67049;SDS011;53955;52.442;13.284;2022-11-02T09:24:04;9.43;;;2.10;;
67049;SDS011;53955;52.442;13.284;2022-11-02T09:26:31;7.68;;;1.70;;
67049;SDS011;53955;52.442;13.284;2022-11-02T09:28:57;6.43;;;1.85;;
67049;SDS011;53955;52.442;13.284;2022-11-02T09:31:24;5.90;;;1.65;;
67049;SDS011;53955;52.442;13.284;2022-11-02T09:33:53;4.68;;;1.35;;
67049;SDS011;53955;52.442;13.284;2022-11-02T09:36:19;7.88;;;2.13;;
67049;SDS011;53955;52.442;13.284;2022-11-02T09:38:47;5.97;;;1.95;;
67049;SDS011;53955;52.442;13.284;2022-11-02T09:41:16;5.28;;;1.10;;
67049;SDS011;53955;52.442;13.284;2022-11-02T09:43:52;6.47;;;1.90;;
67049;SDS011;53955;52.442;13.284;2022-11-02T09:46:25;4.88;;;1.60;;
67049;SDS011;53955;52.442;13.284;2022-11-02T09:48:55;5.20;;;2.08;;
67049;SDS011;53955;52.442;13.284;2022-11-02T09:51:25;4.43;;;1.48;;
67049;SDS011;53955;52.442;13.284;2022-11-02T09:53:57;6.30;;;2.10;;
67049;SDS011;53955;52.442;13.284;2022-11-02T09:56:30;5.28;;;1.40;;
67049;SDS011;53955;52.442;13.284;2022-11-02T09:58:59;5.85;;;1.38;;
67049;SDS011;53955;52.442;13.284;2022-11-02T10:01:32;6.10;;;1.63;;
67049;SDS011;53955;52.442;13.284;2022-11-02T10:04:18;7.53;;;1.45;;
67049;SDS011;53955;52.442;13.284;2022-11-02T10:06:53;4.95;;;1.13;;
67049;SDS011;53955;52.442;13.284;2022-11-02T10:09:26;5.07;;;1.30;;
67049;SDS011;53955;52.442;13.284;2022-11-02T10:12:01;6.10;;;1.60;;
67049;SDS011;53955;52.442;13.284;2022-11-02T10:14:37;9.05;;;1.88;;
67049;SDS011;53955;52.442;13.284;2022-11-02T10:17:10;3.00;;;1.50;;
67049;SDS011;53955;52.442;13.284;2022-11-02T10:19:40;5.50;;;1.77;;
67049;SDS011;53955;52.442;13.284;2022-11-02T10:22:12;4.15;;;1.10;;
67049;SDS011;53955;52.442;13.284;2022-11-02T10:24:42;4.65;;;1.38;;
67049;SDS011;53955;52.442;13.284;2022-11-02T10:27:11;9.20;;;1.50;;
67049;SDS011;53955;52.442;13.284;2022-11-02T10:29:42;5.20;;;1.90;;
67049;SDS011;53955;52.442;13.284;2022-11-02T10:32:13;12.85;;;2.30;;
67049;SDS011;53955;52.442;13.284;2022-11-02T10:34:41;8.45;;;1.52;;
67049;SDS011;53955;52.442;13.284;2022-11-02T10:37:13;5.70;;;2.67;;
67049;SDS011;53955;52.442;13.284;2022-11-02T10:39:58;3.28;;;1.15;;
67049;SDS011;53955;52.442;13.284;2022-11-02T10:42:43;7.35;;;1.70;;
67049;SDS011;53955;52.442;13.284;2022-11-02T10:45:38;6.32;;;1.27;;
67049;SDS011;53955;52.442;13.284;2022-11-02T10:48:14;7.32;;;1.42;;
67049;SDS011;53955;52.442;13.284;2022-11-02T10:50:54;6.60;;;1.20;;
67049;SDS011;53955;52.442;13.284;2022-11-02T10:53:26;6.57;;;1.75;;
67049;SDS011;53955;52.442;13.284;2022-11-02T10:56:00;6.25;;;1.50;;
67049;SDS011;53955;52.442;13.284;2022-11-02T10:58:33;5.70;;;1.92;;
67049;SDS011;53955;52.442;13.284;2022-11-02T11:01:04;4.63;;;1.52;;
67049;SDS011;53955;52.442;13.284;2022-11-02T11:03:32;5.45;;;1.40;;
67049;SDS011;53955;52.442;13.284;2022-11-02T11:05:59;5.82;;;1.50;;
67049;SDS011;53955;52.442;13.284;2022-11-02T11:08:28;7.30;;;1.20;;
67049;SDS011;53955;52.442;13.284;2022-11-02T11:11:10;4.57;;;1.42;;
67049;SDS011;53955;52.442;13.284;2022-11-02T11:13:39;4.38;;;1.30;;
67049;SDS011;53955;52.442;13.284;2022-11-02T11:16:07;4.70;;;1.30;;
67049;SDS011;53955;52.442;13.284;2022-11-02T11:18:34;2.97;;;1.13;;
67049;SDS011;53955;52.442;13.284;2022-11-02T11:21:02;5.32;;;1.45;;
67049;SDS011;53955;52.442;13.284;2022-11-02T11:23:29;6.40;;;1.60;;
67049;SDS011;53955;52.442;13.284;2022-11-02T11:25:57;4.30;;;1.40;;
67049;SDS011;53955;52.442;13.284;2022-11-02T11:28:27;3.42;;;1.27;;
67049;SDS011;53955;52.442;13.284;2022-11-02T11:31:03;6.75;;;1.30;;
67049;SDS011;53955;52.442;13.284;2022-11-02T11:33:42;6.13;;;1.42;;
67049;SDS011;53955;52.442;13.284;2022-11-02T11:36:19;5.57;;;1.20;;
67049;SDS011;53955;52.442;13.284;2022-11-02T11:38:50;8.18;;;1.90;;
67049;SDS011;53955;52.442;13.284;2022-11-02T11:41:19;7.30;;;1.40;;
67049;SDS011;53955;52.442;13.284;2022-11-02T11:43:47;6.60;;;1.88;;
67049;SDS011;53955;52.442;13.284;2022-11-02T11:46:15;5.88;;;1.67;;
67049;SDS011;53955;52.442;13.284;2022-11-02T11:48:44;5.07;;;1.25;;
67049;SDS011;53955;52.442;13.284;2022-11-02T11:51:27;7.15;;;1.65;;
67049;SDS011;53955;52.442;13.284;2022-11-02T11:54:04;4.07;;;1.00;;
67049;SDS011;53955;52.442;13.284;2022-11-02T11:56:32;4.45;;;2.00;;
67049;SDS011;53955;52.442;13.284;2022-11-02T11:59:00;3.60;;;1.60;;
67049;SDS011;53955;52.442;13.284;2022-11-02T12:01:28;4.30;;;1.63;;
67049;SDS011;53955;52.442;13.284;2022-11-02T12:04:04;7.88;;;1.58;;
67049;SDS011;53955;52.442;13.284;2022-11-02T12:06:34;4.68;;;1.35;;
67049;SDS011;53955;52.442;13.284;2022-11-02T12:09:10;5.53;;;1.77;;
67049;SDS011;53955;52.442;13.284;2022-11-02T12:11:49;6.70;;;1.85;;
67049;SDS011;53955;52.442;13.284;2022-11-02T12:14:38;4.78;;;1.48;;
67049;SDS011;53955;52.442;13.284;2022-11-02T12:17:20;5.22;;;1.30;;
67049;SDS011;53955;52.442;13.284;2022-11-02T12:20:00;4.60;;;1.48;;
67049;SDS011;53955;52.442;13.284;2022-11-02T12:22:37;5.20;;;1.20;;
67049;SDS011;53955;52.442;13.284;2022-11-02T12:25:15;5.75;;;1.45;;
67049;SDS011;53955;52.442;13.284;2022-11-02T12:27:51;3.35;;;1.42;;
67049;SDS011;53955;52.442;13.284;2022-11-02T12:30:27;5.57;;;1.60;;
67049;SDS011;53955;52.442;13.284;2022-11-02T12:33:04;4.55;;;1.48;;
67049;SDS011;53955;52.442;13.284;2022-11-02T12:35:43;6.47;;;1.40;;
67049;SDS011;53955;52.442;13.284;2022-11-02T12:41:16;3.63;;;1.38;;
67049;SDS011;53955;52.442;13.284;2022-11-02T12:43:52;5.38;;;1.95;;
67049;SDS011;53955;52.442;13.284;2022-11-02T12:46:30;5.40;;;1.60;;
67049;SDS011;53955;52.442;13.284;2022-11-02T12:49:05;4.28;;;1.45;;
67049;SDS011;53955;52.442;13.284;2022-11-02T12:51:44;2.17;;;1.13;;
67049;SDS011;53955;52.442;13.284;2022-11-02T12:54:16;2.83;;;1.30;;
67049;SDS011;53955;52.442;13.284;2022-11-02T12:56:46;4.63;;;1.35;;
67049;SDS011;53955;52.442;13.284;2022-11-02T12:59:17;5.25;;;1.50;;
67049;SDS011;53955;52.442;13.284;2022-11-02T13:01:48;3.65;;;1.55;;
67049;SDS011;53955;52.442;13.284;2022-11-02T13:04:20;3.70;;;1.55;;
67049;SDS011;53955;52.442;13.284;2022-11-02T13:06:50;2.63;;;1.10;;
67049;SDS011;53955;52.442;13.284;2022-11-02T13:09:22;5.93;;;1.40;;
67049;SDS011;53955;52.442;13.284;2022-11-02T13:11:55;2.75;;;1.20;;
67049;SDS011;53955;52.442;13.284;2022-11-02T13:14:25;4.90;;;1.52;;
67049;SDS011;53955;52.442;13.284;2022-11-02T13:16:58;4.15;;;1.73;;
67049;SDS011;53955;52.442;13.284;2022-11-02T13:19:30;3.65;;;1.40;;
67049;SDS011;53955;52.442;13.284;2022-11-02T13:22:01;5.60;;;1.55;;
67049;SDS011;53955;52.442;13.284;2022-11-02T13:24:30;4.45;;;1.65;;
67049;SDS011;53955;52.442;13.284;2022-11-02T13:27:04;5.05;;;1.63;;
67049;SDS011;53955;52.442;13.284;2022-11-02T13:29:33;3.53;;;1.25;;
67049;SDS011;53955;52.442;13.284;2022-11-02T13:32:08;7.13;;;1.50;;
67049;SDS011;53955;52.442;13.284;2022-11-02T13:34:40;3.15;;;1.35;;
67049;SDS011;53955;52.442;13.284;2022-11-02T13:37:12;4.57;;;1.23;;
67049;SDS011;53955;52.442;13.284;2022-11-02T13:39:43;2.33;;;1.17;;
67049;SDS011;53955;52.442;13.284;2022-11-02T13:42:21;4.65;;;1.38;;
67049;SDS011;53955;52.442;13.284;2022-11-02T13:45:13;1.75;;;0.90;;
67049;SDS011;53955;52.442;13.284;2022-11-02T13:47:57;4.35;;;1.35;;
67049;SDS011;53955;52.442;13.284;2022-11-02T13:50:41;3.97;;;1.10;;
67049;SDS011;53955;52.442;13.284;2022-11-02T13:53:14;4.63;;;1.30;;
67049;SDS011;53955;52.442;13.284;2022-11-02T13:55:45;3.03;;;1.27;;
67049;SDS011;53955;52.442;13.284;2022-11-02T13:58:18;3.72;;;1.30;;
67049;SDS011;53955;52.442;13.284;2022-11-02T14:00:48;3.83;;;1.13;;
67049;SDS011;53955;52.442;13.284;2022-11-02T14:03:18;4.88;;;1.58;;
67049;SDS011;53955;52.442;13.284;2022-11-02T14:05:49;5.95;;;1.15;;
67049;SDS011;53955;52.442;13.284;2022-11-02T14:08:20;3.20;;;1.20;;
67049;SDS011;53955;52.442;13.284;2022-11-02T14:16:56;5.10;;;1.08;;
67049;SDS011;53955;52.442;13.284;2022-11-02T14:19:48;3.55;;;1.40;;
67049;SDS011;53955;52.442;13.284;2022-11-02T14:22:20;3.53;;;1.10;;
67049;SDS011;53955;52.442;13.284;2022-11-02T14:24:53;4.03;;;1.30;;
67049;SDS011;53955;52.442;13.284;2022-11-02T14:27:39;5.60;;;1.50;;
67049;SDS011;53955;52.442;13.284;2022-11-02T14:33:12;5.13;;;1.45;;
67049;SDS011;53955;52.442;13.284;2022-11-02T14:35:45;4.47;;;1.30;;
67049;SDS011;53955;52.442;13.284;2022-11-02T14:38:29;6.95;;;1.33;;
67049;SDS011;53955;52.442;13.284;2022-11-02T14:41:14;4.60;;;1.60;;
67049;SDS011;53955;52.442;13.284;2022-11-02T14:44:00;4.70;;;1.25;;
67049;SDS011;53955;52.442;13.284;2022-11-02T14:46:44;5.15;;;1.27;;
67049;SDS011;53955;52.442;13.284;2022-11-02T14:49:20;4.22;;;1.40;;
67049;SDS011;53955;52.442;13.284;2022-11-02T14:51:56;3.60;;;1.40;;
67049;SDS011;53955;52.442;13.284;2022-11-02T14:54:26;4.13;;;1.25;;
67049;SDS011;53955;52.442;13.284;2022-11-02T14:56:56;7.15;;;1.70;;
67049;SDS011;53955;52.442;13.284;2022-11-02T14:59:26;4.57;;;1.38;;
67049;SDS011;53955;52.442;13.284;2022-11-02T15:01:56;2.70;;;1.25;;
67049;SDS011;53955;52.442;13.284;2022-11-02T15:04:25;4.30;;;1.40;;
67049;SDS011;53955;52.442;13.284;2022-11-02T15:06:55;5.70;;;1.27;;
67049;SDS011;53955;52.442;13.284;2022-11-02T15:12:25;3.10;;;1.30;;
67049;SDS011;53955;52.442;13.284;2022-11-02T15:23:51;5.38;;;1.55;;
67049;SDS011;53955;52.442;13.284;2022-11-02T15:26:26;10.93;;;1.75;;
67049;SDS011;53955;52.442;13.284;2022-11-02T15:28:57;6.03;;;1.30;;
67049;SDS011;53955;52.442;13.284;2022-11-02T15:31:26;6.20;;;1.50;;
67049;SDS011;53955;52.442;13.284;2022-11-02T15:33:55;5.75;;;1.33;;
67049;SDS011;53955;52.442;13.284;2022-11-02T15:36:26;2.90;;;1.20;;
67049;SDS011;53955;52.442;13.284;2022-11-02T15:38:59;4.80;;;1.02;;
67049;SDS011;53955;52.442;13.284;2022-11-02T15:41:32;4.30;;;1.30;;
67049;SDS011;53955;52.442;13.284;2022-11-02T15:47:07;3.10;;;1.17;;
67049;SDS011;53955;52.442;13.284;2022-11-02T15:49:57;4.18;;;1.60;;
67049;SDS011;53955;52.442;13.284;2022-11-02T15:52:38;4.43;;;1.20;;
67049;SDS011;53955;52.442;13.284;2022-11-02T15:55:23;5.32;;;1.25;;
67049;SDS011;53955;52.442;13.284;2022-11-02T15:58:02;2.80;;;1.23;;
67049;SDS011;53955;52.442;13.284;2022-11-02T16:00:41;2.50;;;1.15;;
67049;SDS011;53955;52.442;13.284;2022-11-02T16:03:08;4.70;;;1.67;;
67049;SDS011;53955;52.442;13.284;2022-11-02T16:05:40;4.97;;;1.70;;
67049;SDS011;53955;52.442;13.284;2022-11-02T16:08:19;4.68;;;1.50;;
67049;SDS011;53955;52.442;13.284;2022-11-02T16:10:48;5.40;;;1.70;;
67049;SDS011;53955;52.442;13.284;2022-11-02T16:13:16;7.60;;;2.97;;
67049;SDS011;53955;52.442;13.284;2022-11-02T16:15:45;4.25;;;1.58;;
67049;SDS011;53955;52.442;13.284;2022-11-02T16:18:20;4.82;;;1.50;;